createdAt,value
2023-01-11T00:00:34.973Z,98.10
2023-01-11T00:03:03.280Z,98.02
2023-01-11T00:05:31.183Z,97.76
2023-01-11T00:07:58.923Z,98.17
2023-01-11T00:10:25.707Z,98.80
2023-01-11T00:12:52.407Z,99.10
2023-01-11T00:15:19.566Z,99.34
2023-01-11T00:17:46.276Z,99.43
2023-01-11T00:20:13.019Z,98.82
2023-01-11T00:22:39.853Z,97.47
2023-01-11T00:25:08.234Z,96.35
2023-01-11T00:27:35.493Z,95.96
2023-01-11T00:30:02.225Z,96.32
2023-01-11T00:32:29.075Z,96.13
2023-01-11T00:34:55.915Z,95.22
2023-01-11T00:37:22.805Z,93.17
2023-01-11T00:39:49.911Z,91.21
2023-01-11T00:42:35.692Z,90.31
2023-01-11T00:45:21.592Z,88.49
2023-01-11T00:47:57.940Z,87.07
2023-01-11T00:50:25.943Z,85.95
2023-01-11T00:52:52.761Z,85.75
2023-01-11T00:55:20.690Z,84.56
2023-01-11T00:57:47.457Z,85.10
2023-01-11T01:00:14.705Z,84.60
2023-01-11T01:02:41.762Z,83.76
2023-01-11T01:05:09.198Z,83.18
2023-01-11T01:07:36.582Z,83.02
2023-01-11T01:10:04.333Z,82.39
2023-01-11T01:12:49.846Z,81.28
2023-01-11T01:15:16.752Z,80.85
2023-01-11T01:17:45.583Z,79.98
2023-01-11T01:20:12.886Z,80.04
2023-01-11T01:22:40.414Z,79.73
2023-01-11T01:25:07.809Z,79.47
2023-01-11T01:27:34.527Z,79.13
2023-01-11T01:30:01.291Z,79.01
2023-01-11T01:32:28.177Z,78.86
2023-01-11T01:34:55.067Z,78.93
2023-01-11T01:37:21.844Z,79.01
2023-01-11T01:39:48.566Z,79.42
2023-01-11T01:42:16.751Z,79.16
2023-01-11T01:44:57.432Z,79.18
2023-01-11T01:47:29.393Z,79.24
2023-01-11T01:49:58.748Z,79.38
2023-01-11T01:52:28.589Z,79.31
2023-01-11T01:54:57.012Z,79.05
2023-01-11T01:57:26.499Z,79.01
2023-01-11T01:59:53.126Z,79.37
2023-01-11T02:02:20.113Z,79.97
2023-01-11T02:04:47.024Z,80.59
2023-01-11T02:07:19.076Z,81.16
2023-01-11T02:10:04.408Z,81.40
2023-01-11T02:12:38.362Z,81.67
2023-01-11T02:15:07.109Z,81.86
2023-01-11T02:17:33.990Z,81.82
2023-01-11T02:20:29.754Z,81.69
2023-01-11T02:23:06.684Z,81.39
2023-01-11T02:26:01.334Z,81.84
2023-01-11T02:29:03.773Z,82.19
2023-01-11T02:31:42.613Z,82.06
2023-01-11T02:34:21.890Z,82.12
2023-01-11T02:36:58.880Z,82.66
2023-01-11T02:39:44.640Z,82.01
2023-01-11T02:42:39.535Z,82.10
2023-01-11T02:45:34.528Z,82.31
2023-01-11T02:48:07.394Z,81.59
2023-01-11T02:50:33.980Z,81.60
2023-01-11T02:53:27.317Z,81.71
2023-01-11T02:55:56.822Z,81.72
2023-01-11T02:58:24.621Z,80.51
2023-01-11T03:00:51.248Z,80.60
2023-01-11T03:03:29.713Z,80.42
2023-01-11T03:06:00.074Z,79.81
2023-01-11T03:08:54.959Z,79.37
2023-01-11T03:12:12.185Z,78.84
2023-01-11T03:14:50.951Z,78.18
2023-01-11T03:17:28.391Z,78.33
2023-01-11T03:20:05.155Z,78.34
2023-01-11T03:22:43.837Z,77.68
2023-01-11T03:25:16.719Z,77.69
2023-01-11T03:27:52.888Z,77.89
2023-01-11T03:30:31.364Z,78.36
2023-01-11T03:33:03.450Z,78.04
2023-01-11T03:35:43.779Z,77.96
2023-01-11T03:38:15.938Z,78.13
2023-01-11T03:40:46.261Z,78.16
2023-01-11T03:43:13.490Z,77.91
2023-01-11T03:45:57.618Z,77.65
2023-01-11T03:48:30.818Z,77.36
2023-01-11T03:50:57.591Z,77.12
2023-01-11T03:53:25.121Z,76.87
2023-01-11T03:55:55.360Z,76.63
2023-01-11T03:58:22.770Z,76.74
2023-01-11T04:00:49.764Z,77.08
2023-01-11T04:03:16.606Z,77.24
2023-01-11T04:05:44.435Z,77.01
2023-01-11T04:08:11.318Z,76.93
2023-01-11T04:10:38.778Z,76.98
2023-01-11T04:13:05.713Z,76.32
2023-01-11T04:15:35.196Z,75.88
2023-01-11T04:18:06.256Z,75.36
2023-01-11T04:20:37.690Z,75.52
2023-01-11T04:23:04.554Z,75.56
2023-01-11T04:25:31.492Z,75.16
2023-01-11T04:27:58.542Z,75.11
2023-01-11T04:30:25.243Z,74.87
2023-01-11T04:32:52.069Z,74.61
2023-01-11T04:35:18.945Z,74.82
2023-01-11T04:37:45.628Z,74.76
2023-01-11T04:40:12.361Z,74.73
2023-01-11T04:42:39.334Z,74.68
2023-01-11T04:45:06.254Z,74.76
2023-01-11T04:47:33.195Z,74.76
2023-01-11T04:49:59.891Z,75.06
2023-01-11T04:52:29.110Z,75.20
2023-01-11T04:54:55.707Z,75.11
2023-01-11T04:57:24.645Z,75.36
2023-01-11T04:59:52.129Z,75.56
2023-01-11T05:02:19.203Z,75.65
2023-01-11T05:04:45.876Z,75.40
2023-01-11T05:07:13.809Z,75.06
2023-01-11T05:09:40.664Z,74.94
2023-01-11T05:12:07.384Z,75.31
2023-01-11T05:14:34.973Z,75.51
2023-01-11T05:17:01.594Z,75.61
2023-01-11T05:19:28.383Z,75.76
2023-01-11T05:21:55.230Z,76.08
2023-01-11T05:24:25.966Z,76.17
2023-01-11T05:26:53.003Z,75.87
2023-01-11T05:29:20.703Z,75.07
2023-01-11T05:31:47.805Z,74.75
2023-01-11T05:34:15.009Z,74.32
2023-01-11T05:36:42.228Z,74.02
2023-01-11T05:39:13.143Z,74.02
2023-01-11T05:41:40.007Z,73.64
2023-01-11T05:44:27.339Z,73.57
2023-01-11T05:46:54.144Z,73.61
2023-01-11T05:49:21.669Z,73.50
2023-01-11T05:51:48.295Z,73.42
2023-01-11T05:54:15.480Z,73.50
2023-01-11T05:56:42.499Z,73.22
2023-01-11T05:59:09.313Z,72.80
2023-01-11T06:01:40.006Z,72.54
2023-01-11T06:04:07.874Z,72.58
2023-01-11T06:06:34.609Z,72.40
2023-01-11T06:09:01.395Z,72.53
2023-01-11T06:11:28.298Z,72.79
2023-01-11T06:13:55.073Z,72.76
2023-01-11T06:16:23.125Z,72.75
2023-01-11T06:18:50.723Z,73.05
2023-01-11T06:21:17.651Z,72.92
2023-01-11T06:23:46.795Z,72.80
2023-01-11T06:26:14.795Z,72.77
2023-01-11T06:28:41.712Z,72.79
2023-01-11T06:31:10.116Z,72.71
2023-01-11T06:33:37.145Z,72.93
2023-01-11T06:36:05.668Z,73.49
2023-01-11T06:38:32.401Z,73.25
2023-01-11T06:40:59.917Z,72.84
2023-01-11T06:43:26.893Z,72.42
2023-01-11T06:45:53.714Z,72.30
2023-01-11T06:48:20.973Z,71.89
2023-01-11T06:50:48.698Z,71.67
2023-01-11T06:53:15.470Z,71.45
2023-01-11T06:55:44.916Z,71.74
2023-01-11T06:58:12.106Z,71.58
2023-01-11T07:00:38.945Z,71.28
2023-01-11T07:03:06.932Z,71.21
2023-01-11T07:05:34.134Z,71.10
2023-01-11T07:08:01.092Z,70.95
2023-01-11T07:10:28.278Z,70.94
2023-01-11T07:12:55.313Z,70.87
2023-01-11T07:15:22.988Z,70.53
2023-01-11T07:17:57.192Z,70.52
2023-01-11T07:20:24.849Z,70.53
2023-01-11T07:22:51.582Z,70.69
2023-01-11T07:25:18.389Z,69.96
2023-01-11T07:27:45.173Z,69.43
2023-01-11T07:30:12.144Z,67.97
2023-01-11T07:32:38.859Z,67.09
2023-01-11T07:35:06.242Z,65.92
2023-01-11T07:37:36.349Z,65.25
2023-01-11T07:40:03.984Z,64.97
2023-01-11T07:42:49.513Z,65.20
2023-01-11T07:45:16.350Z,65.10
2023-01-11T07:47:43.063Z,64.88
2023-01-11T07:50:10.128Z,64.32
2023-01-11T07:52:37.157Z,63.76
2023-01-11T07:55:04.657Z,63.39
2023-01-11T07:57:37.104Z,63.18
2023-01-11T08:00:04.178Z,62.06
2023-01-11T08:02:38.414Z,60.98
2023-01-11T08:05:06.084Z,60.55
2023-01-11T08:07:33.699Z,60.86
2023-01-11T08:10:00.979Z,60.89
2023-01-11T08:12:46.244Z,60.98
2023-01-11T08:15:13.640Z,61.26
2023-01-11T08:17:41.684Z,61.57
2023-01-11T08:20:09.363Z,61.41
2023-01-11T08:22:36.098Z,61.83
2023-01-11T08:25:04.377Z,62.06
2023-01-11T08:27:31.332Z,61.88
2023-01-11T08:29:58.219Z,62.33
2023-01-11T08:32:29.700Z,62.27
2023-01-11T08:34:56.385Z,61.37
2023-01-11T08:37:25.928Z,61.17
2023-01-11T08:39:52.867Z,61.90
2023-01-11T08:42:20.311Z,61.77
2023-01-11T08:44:47.184Z,62.06
2023-01-11T08:47:14.122Z,62.45
2023-01-11T08:49:42.404Z,62.13
2023-01-11T08:52:12.323Z,62.26
2023-01-11T08:54:40.294Z,62.37
2023-01-11T08:57:07.232Z,61.96
2023-01-11T09:04:25.690Z,60.10
2023-01-11T09:06:52.875Z,60.18
2023-01-11T09:09:21.428Z,60.32
2023-01-11T09:11:54.308Z,59.95
2023-01-11T09:14:21.954Z,58.78
2023-01-11T09:16:49.939Z,57.26
2023-01-11T09:19:16.973Z,56.72
2023-01-11T09:21:46.623Z,57.25
2023-01-11T09:24:14.277Z,57.75
2023-01-11T09:26:42.926Z,58.51
2023-01-11T09:29:10.637Z,58.32
2023-01-11T09:31:42.280Z,58.07
2023-01-11T09:34:11.969Z,58.23
2023-01-11T09:36:39.714Z,57.67
2023-01-11T09:39:13.890Z,57.90
2023-01-11T09:42:01.309Z,57.76
2023-01-11T09:44:29.068Z,57.91
2023-01-11T09:47:19.094Z,57.75
2023-01-11T09:49:53.936Z,57.73
2023-01-11T09:52:32.402Z,58.17
2023-01-11T09:55:01.065Z,58.56
2023-01-11T09:57:51.389Z,58.57
2023-01-11T10:00:41.332Z,59.15
2023-01-11T10:03:32.524Z,59.26
2023-01-11T10:06:17.901Z,59.72
2023-01-11T10:18:33.477Z,60.07
2023-01-11T10:19:10.450Z,59.48
2023-01-11T10:21:42.184Z,59.34
2023-01-11T10:24:15.574Z,59.63
2023-01-11T10:26:44.797Z,59.54
2023-01-11T10:29:19.169Z,59.22
2023-01-11T10:32:02.585Z,59.48
2023-01-11T10:35:00.282Z,59.08
2023-01-11T10:37:36.447Z,58.79
2023-01-11T10:40:35.267Z,58.93
2023-01-11T10:43:16.214Z,58.90
2023-01-11T10:45:53.363Z,59.08
2023-01-11T10:48:34.248Z,59.04
2023-01-11T10:51:39.773Z,58.14
2023-01-11T10:54:17.484Z,57.57
2023-01-11T10:58:02.809Z,57.00
2023-01-11T11:01:12.662Z,57.53
2023-01-11T11:03:57.885Z,56.89
2023-01-11T11:06:55.232Z,56.80
2023-01-11T11:09:45.302Z,55.55
2023-01-11T11:12:23.255Z,54.95
2023-01-11T11:15:06.979Z,54.44
2023-01-11T11:17:36.888Z,55.10
2023-01-11T11:20:35.243Z,55.88
2023-01-11T11:23:03.865Z,56.59
2023-01-11T11:25:37.272Z,56.82
2023-01-11T11:36:10.179Z,57.84
2023-01-11T11:38:41.610Z,57.80
2023-01-11T11:41:13.984Z,57.96
2023-01-11T11:43:46.916Z,58.30
2023-01-11T11:46:18.650Z,58.23
2023-01-11T11:49:12.812Z,58.65
2023-01-11T11:51:39.942Z,58.72
2023-01-11T11:54:06.796Z,58.70
2023-01-11T11:56:34.444Z,58.53
2023-01-11T11:59:07.121Z,58.55
2023-01-11T12:01:36.040Z,58.85
2023-01-11T12:04:21.797Z,58.78
2023-01-11T12:07:12.002Z,58.77
2023-01-11T12:09:39.467Z,58.38
2023-01-11T12:12:06.793Z,58.17
2023-01-11T12:14:34.878Z,58.72
2023-01-11T12:17:24.749Z,58.72
2023-01-11T12:19:51.994Z,58.72
2023-01-11T12:22:24.783Z,59.14
2023-01-11T12:25:10.257Z,59.33
2023-01-11T12:27:52.154Z,59.48
2023-01-11T12:30:50.102Z,59.92
2023-01-11T12:33:47.690Z,60.16
2023-01-11T12:36:20.165Z,60.30
2023-01-11T12:38:47.012Z,60.63
2023-01-11T12:41:43.446Z,60.66
2023-01-11T12:44:19.240Z,60.97
2023-01-11T12:47:09.789Z,60.76
2023-01-11T12:50:06.641Z,61.10
2023-01-11T12:52:40.498Z,60.74
2023-01-11T12:58:44.073Z,60.73
2023-01-11T13:01:34.219Z,61.17
2023-01-11T13:04:12.477Z,61.06
2023-01-11T13:06:58.352Z,61.37
2023-01-11T13:09:43.829Z,61.54
2023-01-11T13:12:16.638Z,61.81
2023-01-11T13:15:26.880Z,61.98
2023-01-11T13:18:01.007Z,62.11
2023-01-11T13:21:00.481Z,62.19
2023-01-11T13:23:33.093Z,62.44
2023-01-11T13:26:17.317Z,62.53
2023-01-11T13:28:45.898Z,62.74
2023-01-11T13:31:12.835Z,63.02
2023-01-11T13:33:44.792Z,63.06
2023-01-11T13:36:23.215Z,63.82
2023-01-11T13:38:53.644Z,63.83
2023-01-11T13:41:25.504Z,64.24
2023-01-11T13:44:04.634Z,64.64
2023-01-11T13:46:50.931Z,65.18
2023-01-11T13:49:38.723Z,65.81
2023-01-11T13:52:15.849Z,66.26
2023-01-11T13:55:00.401Z,66.70
2023-01-11T13:57:54.486Z,67.04
2023-01-11T14:00:43.544Z,67.41
2023-01-11T14:03:34.083Z,67.78
2023-01-11T14:06:35.804Z,68.15
2023-01-11T14:09:20.978Z,68.62
2023-01-11T14:11:51.192Z,69.11
2023-01-11T14:14:26.024Z,69.41
2023-01-11T14:17:05.567Z,69.42
2023-01-11T14:20:04.966Z,69.68
2023-01-11T14:22:42.357Z,69.94
2023-01-11T14:25:22.921Z,69.94
2023-01-11T14:28:20.994Z,70.15
2023-01-11T14:30:55.226Z,70.30
2023-01-11T14:34:00.962Z,70.48
2023-01-11T14:36:46.034Z,70.75
2023-01-11T14:39:47.331Z,70.95
2023-01-11T14:42:34.273Z,71.09
2023-01-11T14:45:21.106Z,70.86
2023-01-11T14:47:48.153Z,70.80
2023-01-11T14:50:32.914Z,70.93
2023-01-11T14:53:00.675Z,70.96
2023-01-11T14:55:34.474Z,71.08
2023-01-11T14:58:03.882Z,71.16
2023-01-11T15:00:30.726Z,71.32
2023-01-11T15:03:00.740Z,71.52
2023-01-11T15:05:31.289Z,71.78
2023-01-11T15:08:23.106Z,72.14
2023-01-11T15:11:01.814Z,72.22
2023-01-11T15:13:49.034Z,72.35
2023-01-11T15:16:35.698Z,72.49
2023-01-11T15:19:06.325Z,72.61
2023-01-11T15:21:35.881Z,72.84
2023-01-11T15:24:03.657Z,72.97
2023-01-11T15:26:30.492Z,73.07
2023-01-11T15:28:59.385Z,73.34
2023-01-11T15:31:38.455Z,73.61
2023-01-11T15:34:31.969Z,73.66
2023-01-11T15:37:06.020Z,73.86
2023-01-11T15:39:55.760Z,74.01
2023-01-11T15:42:48.814Z,74.12
2023-01-11T15:46:03.369Z,74.12
2023-01-11T15:48:57.147Z,74.46
2023-01-11T15:51:39.140Z,74.71
2023-01-11T15:54:29.041Z,75.12
2023-01-11T15:57:23.328Z,75.50
2023-01-11T16:00:12.069Z,75.62
2023-01-11T16:03:05.645Z,75.76
2023-01-11T16:05:34.836Z,75.79
2023-01-11T16:08:07.725Z,75.84
2023-01-11T16:10:42.339Z,75.96
2023-01-11T16:13:23.620Z,76.10
2023-01-11T16:16:02.692Z,76.35
2023-01-11T16:18:35.267Z,76.68
2023-01-11T16:21:38.346Z,76.86
2023-01-11T16:24:09.063Z,76.68
2023-01-11T16:26:36.901Z,76.64
2023-01-11T16:29:36.602Z,76.60
2023-01-11T16:32:05.539Z,76.48
2023-01-11T16:34:43.319Z,76.14
2023-01-11T16:37:23.703Z,76.08
2023-01-11T16:39:52.574Z,76.12
2023-01-11T16:42:19.321Z,76.35
2023-01-11T16:44:53.135Z,76.45
2023-01-11T16:47:23.531Z,76.55
2023-01-11T16:50:35.537Z,76.54
2023-01-11T16:53:03.813Z,76.38
2023-01-11T16:55:33.796Z,76.38
2023-01-11T16:58:02.823Z,76.36
2023-01-11T17:00:35.200Z,76.30
2023-01-11T17:03:05.162Z,76.34
2023-01-11T17:05:31.950Z,76.03
2023-01-11T17:07:58.701Z,76.03
2023-01-11T17:10:29.009Z,76.18
2023-01-11T17:13:36.096Z,76.34
2023-01-11T17:16:08.668Z,76.28
2023-01-11T17:18:39.710Z,76.19
2023-01-11T17:21:20.080Z,76.09
2023-01-11T17:23:48.139Z,75.82
2023-01-11T17:26:19.493Z,75.83
2023-01-11T17:28:47.052Z,75.69
2023-01-11T17:31:25.765Z,75.70
2023-01-11T17:34:08.171Z,76.07
2023-01-11T17:36:34.926Z,76.22
2023-01-11T17:39:01.855Z,76.37
2023-01-11T17:41:47.542Z,76.51
2023-01-11T17:44:40.289Z,76.71
2023-01-11T17:47:10.929Z,76.90
2023-01-11T17:49:38.415Z,77.15
2023-01-11T17:52:29.583Z,77.22
2023-01-11T17:55:01.239Z,77.51
2023-01-11T17:57:28.188Z,77.61
2023-01-11T18:00:21.266Z,77.71
2023-01-11T18:02:48.605Z,78.32
2023-01-11T18:05:16.497Z,78.52
2023-01-11T18:07:45.853Z,78.51
2023-01-11T18:10:33.287Z,78.56
2023-01-11T18:13:00.129Z,78.80
2023-01-11T18:15:36.029Z,79.10
2023-01-11T18:18:05.600Z,79.06
2023-01-11T18:20:35.718Z,79.51
2023-01-11T18:23:16.679Z,79.73
2023-01-11T18:25:45.671Z,80.13
2023-01-11T18:28:20.512Z,80.39
2023-01-11T18:30:48.023Z,80.55
2023-01-11T18:33:19.107Z,80.60
2023-01-11T18:35:47.785Z,80.69
2023-01-11T18:38:15.655Z,80.79
2023-01-11T18:40:43.420Z,80.78
2023-01-11T18:43:11.073Z,81.02
2023-01-11T18:45:38.139Z,81.45
2023-01-11T18:48:14.503Z,81.99
2023-01-11T18:50:42.044Z,82.45
2023-01-11T18:53:13.289Z,82.74
2023-01-11T18:55:40.437Z,82.91
2023-01-11T18:58:07.284Z,83.03
2023-01-11T19:00:34.634Z,83.23
2023-01-11T19:03:01.887Z,83.53
2023-01-11T19:05:29.544Z,84.02
2023-01-11T19:07:56.591Z,84.11
2023-01-11T19:10:23.745Z,84.81
2023-01-11T19:12:50.590Z,85.49
2023-01-11T19:15:17.331Z,85.92
2023-01-11T19:17:44.987Z,86.48
2023-01-11T19:20:13.730Z,86.73
2023-01-11T19:22:41.024Z,86.91
2023-01-11T19:25:09.410Z,87.09
2023-01-11T19:27:37.066Z,87.01
2023-01-11T19:30:07.590Z,87.15
2023-01-11T19:32:34.640Z,87.40
2023-01-11T19:35:01.486Z,87.72
2023-01-11T19:37:29.759Z,87.65
2023-01-11T19:39:58.029Z,87.74
2023-01-11T19:42:25.217Z,87.90
2023-01-11T19:44:52.027Z,87.85
2023-01-11T19:47:19.023Z,88.01
2023-01-11T19:49:45.919Z,87.97
2023-01-11T19:52:14.402Z,87.97
2023-01-11T19:54:42.721Z,88.06
2023-01-11T19:57:11.153Z,88.30
2023-01-11T19:59:37.911Z,88.23
2023-01-11T20:02:05.037Z,88.34
2023-01-11T20:04:32.602Z,88.19
2023-01-11T20:06:59.448Z,88.18
2023-01-11T20:09:27.621Z,88.02
2023-01-11T20:11:55.164Z,87.77
2023-01-11T20:14:22.024Z,87.59
2023-01-11T20:16:49.563Z,87.44
2023-01-11T20:19:16.717Z,87.47
2023-01-11T20:21:43.685Z,87.49
2023-01-11T20:24:13.989Z,87.51
2023-01-11T20:26:40.958Z,87.40
2023-01-11T20:29:07.775Z,87.39
2023-01-11T20:31:37.230Z,87.05
2023-01-11T20:34:08.616Z,86.74
2023-01-11T20:36:35.465Z,86.52
2023-01-11T20:39:03.156Z,86.43
2023-01-11T20:41:50.648Z,86.58
2023-01-11T20:44:23.287Z,87.35
2023-01-11T20:46:51.059Z,87.86
2023-01-11T20:49:18.338Z,88.23
2023-01-11T20:51:45.692Z,88.19
2023-01-11T20:54:13.045Z,88.12
2023-01-11T20:56:41.337Z,88.22
2023-01-11T20:59:08.883Z,88.44
2023-01-11T21:01:36.488Z,88.44
2023-01-11T21:04:05.232Z,88.78
2023-01-11T21:06:33.431Z,89.04
2023-01-11T21:09:00.955Z,89.27
2023-01-11T21:11:28.225Z,89.66
2023-01-11T21:13:55.887Z,89.78
2023-01-11T21:16:27.458Z,90.07
2023-01-11T21:18:56.542Z,90.02
2023-01-11T21:21:23.471Z,90.09
2023-01-11T21:23:53.902Z,90.07
2023-01-11T21:26:20.727Z,89.91
2023-01-11T21:29:05.808Z,90.02
2023-01-11T21:31:33.815Z,90.03
2023-01-11T21:34:04.410Z,90.09
2023-01-11T21:36:32.259Z,90.11
2023-01-11T21:38:59.413Z,89.93
2023-01-11T21:41:46.937Z,89.90
2023-01-11T21:44:14.800Z,89.76
2023-01-11T21:46:42.318Z,89.60
2023-01-11T21:49:11.969Z,89.34
2023-01-11T21:51:38.913Z,89.33
2023-01-11T21:54:07.700Z,89.24
2023-01-11T21:56:37.233Z,89.35
2023-01-11T21:59:04.164Z,89.49
2023-01-11T22:01:31.085Z,89.51
2023-01-11T22:03:58.145Z,89.29
2023-01-11T22:06:25.108Z,89.14
2023-01-11T22:08:52.650Z,89.01
2023-01-11T22:11:19.726Z,88.87
2023-01-11T22:13:46.533Z,88.71
2023-01-11T22:16:15.802Z,88.73
2023-01-11T22:18:43.603Z,88.82
2023-01-11T22:21:12.390Z,88.84
2023-01-11T22:23:39.778Z,88.84
2023-01-11T22:26:08.950Z,88.56
2023-01-11T22:28:54.407Z,88.64
2023-01-11T22:31:21.879Z,88.70
2023-01-11T22:33:48.706Z,88.62
2023-01-11T22:36:15.867Z,88.41
2023-01-11T22:38:43.108Z,88.16
2023-01-11T22:41:10.457Z,88.00
2023-01-11T22:43:37.429Z,88.10
2023-01-11T22:46:04.614Z,88.21
2023-01-11T22:48:31.733Z,88.18
2023-01-11T22:50:58.562Z,88.52
2023-01-11T22:53:25.595Z,88.57
2023-01-11T22:55:52.532Z,88.67
2023-01-11T22:58:19.374Z,88.65
2023-01-11T23:00:46.216Z,88.57
2023-01-11T23:03:14.233Z,88.57
2023-01-11T23:05:47.887Z,88.63
2023-01-11T23:08:15.446Z,88.71
2023-01-11T23:10:42.287Z,89.04
2023-01-11T23:13:28.483Z,89.08
2023-01-11T23:15:55.635Z,89.31
2023-01-11T23:18:22.678Z,89.33
2023-01-11T23:20:49.644Z,89.47
2023-01-11T23:23:16.468Z,89.51
2023-01-11T23:25:47.028Z,89.32
2023-01-11T23:28:14.246Z,89.09
2023-01-11T23:30:41.087Z,89.70
2023-01-11T23:33:09.566Z,89.90
2023-01-11T23:35:36.566Z,89.96
2023-01-11T23:38:03.457Z,90.47
2023-01-11T23:40:50.471Z,90.62
2023-01-11T23:43:18.132Z,90.75
2023-01-11T23:45:45.084Z,90.63
2023-01-11T23:48:12.018Z,90.47
2023-01-11T23:50:39.525Z,90.42
2023-01-11T23:53:06.648Z,90.50
2023-01-11T23:55:33.569Z,90.59
2023-01-11T23:58:09.321Z,90.85
